Atlantic Elm — 9HA3054 — position and weather

sailwx.info

Track history (hours):
 
Tides and Currents Weather Stations Pressure Air Temp Water Temp Dewpoint Dewpoint Depression Visibility Wind Speed Wind Dir Waves Ship Positions

Atlantic Elm

Last reported at 2016-May-02 00:24 UTC. Time now 2016-May-03 12:28 UTC.
Position N 37°20' W 030°15'.

Length 190 m; draft 10.3 m.

Type: Cargo ship. MMSI: 229081000.

Date/timePositionNaut miles runAvg speedWind from/ knotsBaromVisibWave heightAir tempDewpointWater temp
2016-May-02 00:24N 37°20' W 030°15'2211.7
2016-May-01 22:32N 37°20' W 029°48'1212.0
2016-May-01 21:33N 37°19' W 029°33'1212.1
2016-May-01 20:33N 37°18' W 029°18'1212.3
2016-May-01 19:33N 37°18' W 029°02'1312.6
2016-May-01 18:33N 37°17' W 028°46'1212.3
2016-May-01 17:33N 37°17' W 028°31'1211.9
2016-May-01 16:33N 37°16' W 028°16'1211.8
2016-May-01 15:33N 37°15' W 028°01'1612.5
2016-May-01 14:18N 37°15' W 027°41'912.3
2016-May-01 13:33N 37°14' W 027°30'1512.3
2016-May-01 12:22N 37°13' W 027°12'1012.1
2016-May-01 11:33N 37°13' W 026°59'1212.2
2016-May-01 10:33N 37°12' W 026°44'1212.3
2016-May-01 09:33N 37°12' W 026°29'1212.2
2016-May-01 08:33N 37°11' W 026°13'1212.0
2016-May-01 07:34N 37°11' W 025°58'1211.7
2016-May-01 06:33N 37°10' W 025°44'1211.9
2016-May-01 05:34N 37°09' W 025°29'1212.0
2016-May-01 04:34N 37°09' W 025°14'1212.2
2016-May-01 03:33N 37°08' W 024°59'1212.2
2016-May-01 02:33N 37°07' W 024°43'1212.3
2016-May-01 01:33N 37°06' W 024°28'1211.8
2016-May-01 00:34N 37°04' W 024°13'1212.0
2016-Apr-30 23:33N 37°03' W 023°58'1211.8
2016-Apr-30 22:34N 37°02' W 023°44'  
2016-Apr-27 21:31N 35°59' W 005°32'8 8.8
2016-Apr-27 20:33N 36°01' W 005°22'9 9.4
2016-Apr-27 19:33N 36°03' W 005°11'17511.5
2016-Apr-27 04:15N 36°30' W 001°36'912.5
2016-Apr-27 03:33N 36°31' W 001°25'1512.4
2016-Apr-27 02:20N 36°33' W 001°07'912.0
2016-Apr-27 01:33N 36°34' W 000°55'1212.1
2016-Apr-27 00:32N 36°36' W 000°40'1212.1
2016-Apr-26 23:33N 36°37' W 000°25'1212.2
2016-Apr-26 22:33N 36°38' W 000°10'1212.4
2016-Apr-26 21:33N 36°39' E 000°05'1211.8
2016-Apr-26 20:33N 36°42' E 000°20'1212.1
2016-Apr-26 19:33N 36°44' E 000°34'1212.2
2016-Apr-26 18:33N 36°45' E 000°50'1211.7
2016-Apr-26 17:33N 36°46' E 001°04'1211.7
2016-Apr-26 16:33N 36°48' E 001°18'1212.2
2016-Apr-26 15:33N 36°51' E 001°33'1412.6
2016-Apr-26 14:28N 36°53' E 001°50'1612.4
2016-Apr-26 13:13N 36°55' E 002°09'812.1
2016-Apr-26 12:33N 36°57' E 002°19'1212.2
2016-Apr-26 11:33N 36°60' E 002°34'  
2016-Apr-24 06:32N 36°38' E 013°39'1211.9
2016-Apr-24 05:30N 36°34' E 013°53'1111.9
2016-Apr-24 04:33N 36°29' E 014°06'1212.0
2016-Apr-24 03:33N 36°24' E 014°20'1211.6
2016-Apr-24 02:33N 36°23' E 014°34'3711.6
2016-Apr-23 23:22N 36°23' E 015°20'39211.5
2016-Apr-22 13:17N 36°41' E 023°28'1012.2
2016-Apr-22 12:27N 36°50' E 023°34'1311.9
2016-Apr-22 11:22N 37°02' E 023°40'1111.9
2016-Apr-22 10:29N 37°12' E 023°43'1112.0
2016-Apr-22 09:33N 37°23' E 023°45'1211.9
2016-Apr-22 08:33N 37°35' E 023°46'10 9.9
2016-Apr-22 07:33N 37°44' E 023°40'1111.5
2016-Apr-22 06:33N 37°55' E 023°37'7 7.0
2016-Apr-22 05:33N 38°01' E 023°32'1 0.7
2016-Apr-22 04:31N 38°01' E 023°31'0 0.0
2016-Apr-22 03:31N 38°01' E 023°31'0 0.0
2016-Apr-22 02:31N 38°01' E 023°31'0 0.1
2016-Apr-22 01:31N 38°01' E 023°31'0 0.0
2016-Apr-22 00:31N 38°01' E 023°31'  
Track history (hours):
 
Tides and Currents Weather Stations Pressure Air Temp Water Temp Dewpoint Dewpoint Depression Visibility Wind Speed Wind Dir Waves Ship Positions

Atlantic Elm

Last reported at 2016-May-02 00:24 UTC. Time now 2016-May-03 12:28 UTC.
Position N 37°20' W 030°15'.

Length 190 m; draft 10.3 m.

Type: Cargo ship. MMSI: 229081000.

Date/timePositionNaut miles runAvg speedWind from/ knotsBaromVisibWave heightAir tempDewpointWater temp
2016-May-02 00:24N 37°20' W 030°15'2211.7
2016-May-01 22:32N 37°20' W 029°48'1212.0
2016-May-01 21:33N 37°19' W 029°33'1212.1
2016-May-01 20:33N 37°18' W 029°18'1212.3
2016-May-01 19:33N 37°18' W 029°02'1312.6
2016-May-01 18:33N 37°17' W 028°46'1212.3
2016-May-01 17:33N 37°17' W 028°31'1211.9
2016-May-01 16:33N 37°16' W 028°16'1211.8
2016-May-01 15:33N 37°15' W 028°01'1612.5
2016-May-01 14:18N 37°15' W 027°41'912.3
2016-May-01 13:33N 37°14' W 027°30'1512.3
2016-May-01 12:22N 37°13' W 027°12'1012.1
2016-May-01 11:33N 37°13' W 026°59'1212.2
2016-May-01 10:33N 37°12' W 026°44'1212.3
2016-May-01 09:33N 37°12' W 026°29'1212.2
2016-May-01 08:33N 37°11' W 026°13'1212.0
2016-May-01 07:34N 37°11' W 025°58'1211.7
2016-May-01 06:33N 37°10' W 025°44'1211.9
2016-May-01 05:34N 37°09' W 025°29'1212.0
2016-May-01 04:34N 37°09' W 025°14'1212.2
2016-May-01 03:33N 37°08' W 024°59'1212.2
2016-May-01 02:33N 37°07' W 024°43'1212.3
2016-May-01 01:33N 37°06' W 024°28'1211.8
2016-May-01 00:34N 37°04' W 024°13'1212.0
2016-Apr-30 23:33N 37°03' W 023°58'1211.8
2016-Apr-30 22:34N 37°02' W 023°44'  
2016-Apr-27 21:31N 35°59' W 005°32'8 8.8
2016-Apr-27 20:33N 36°01' W 005°22'9 9.4
2016-Apr-27 19:33N 36°03' W 005°11'17511.5
2016-Apr-27 04:15N 36°30' W 001°36'912.5
2016-Apr-27 03:33N 36°31' W 001°25'1512.4
2016-Apr-27 02:20N 36°33' W 001°07'912.0
2016-Apr-27 01:33N 36°34' W 000°55'1212.1
2016-Apr-27 00:32N 36°36' W 000°40'1212.1
2016-Apr-26 23:33N 36°37' W 000°25'1212.2
2016-Apr-26 22:33N 36°38' W 000°10'1212.4
2016-Apr-26 21:33N 36°39' E 000°05'1211.8
2016-Apr-26 20:33N 36°42' E 000°20'1212.1
2016-Apr-26 19:33N 36°44' E 000°34'1212.2
2016-Apr-26 18:33N 36°45' E 000°50'1211.7
2016-Apr-26 17:33N 36°46' E 001°04'1211.7
2016-Apr-26 16:33N 36°48' E 001°18'1212.2
2016-Apr-26 15:33N 36°51' E 001°33'1412.6
2016-Apr-26 14:28N 36°53' E 001°50'1612.4
2016-Apr-26 13:13N 36°55' E 002°09'812.1
2016-Apr-26 12:33N 36°57' E 002°19'1212.2
2016-Apr-26 11:33N 36°60' E 002°34'  
2016-Apr-24 06:32N 36°38' E 013°39'1211.9
2016-Apr-24 05:30N 36°34' E 013°53'1111.9
2016-Apr-24 04:33N 36°29' E 014°06'1212.0
2016-Apr-24 03:33N 36°24' E 014°20'1211.6
2016-Apr-24 02:33N 36°23' E 014°34'3711.6
2016-Apr-23 23:22N 36°23' E 015°20'39211.5
2016-Apr-22 13:17N 36°41' E 023°28'1012.2
2016-Apr-22 12:27N 36°50' E 023°34'1311.9
2016-Apr-22 11:22N 37°02' E 023°40'1111.9
2016-Apr-22 10:29N 37°12' E 023°43'1112.0
2016-Apr-22 09:33N 37°23' E 023°45'1211.9
2016-Apr-22 08:33N 37°35' E 023°46'10 9.9
2016-Apr-22 07:33N 37°44' E 023°40'1111.5
2016-Apr-22 06:33N 37°55' E 023°37'7 7.0
2016-Apr-22 05:33N 38°01' E 023°32'1 0.7
2016-Apr-22 04:31N 38°01' E 023°31'0 0.0
2016-Apr-22 03:31N 38°01' E 023°31'0 0.0
2016-Apr-22 02:31N 38°01' E 023°31'0 0.1
2016-Apr-22 01:31N 38°01' E 023°31'0 0.0
2016-Apr-22 00:31N 38°01' E 023°31'  

Dump ship's entire track history